Upper Nyack, New York
Current Conditions -  °F | °C
As of 8:56 AM on Saturday 22 Nov 2014 (Local Time) from KHPN Reporting Station
Clear Clear  
Wind Chill: 22°   Ceiling: Unl
Heat Index: 29°   Visibility: 10mi
Dew Point: 11°   Wind: 7mph
Humidity: 47%   Direction: NA
Pressure: 30.43"   Gusts: NA
Location:  41.0938°N, 73.9254°W
Report Text: KHPN 221356Z VRB06KT 10SM CLR M02/M12 A3043 RMK AO2 SLP314 T10171117
Loading
Personal Weather Stations






























Interactive Weather Map New forecast layout! Learn more

10-Day Weather Forecast

Advertisements
Track Severe Weather on mobile